sensor_id;sensor_type;location;lat;lon;timestamp;P1;durP1;ratioP1;P2;durP2;ratioP2
6937;SDS011;40040;42.706;23.372;2022-07-22T00:01:00;7.70;;;5.63;;
6937;SDS011;40040;42.706;23.372;2022-07-22T00:03:27;8.27;;;5.85;;
6937;SDS011;40040;42.706;23.372;2022-07-22T00:05:54;7.65;;;6.18;;
6937;SDS011;40040;42.706;23.372;2022-07-22T00:08:21;8.52;;;6.20;;
6937;SDS011;40040;42.706;23.372;2022-07-22T00:10:49;8.23;;;6.35;;
6937;SDS011;40040;42.706;23.372;2022-07-22T00:13:16;12.20;;;6.57;;
6937;SDS011;40040;42.706;23.372;2022-07-22T00:15:43;9.63;;;5.95;;
6937;SDS011;40040;42.706;23.372;2022-07-22T00:18:10;10.82;;;6.82;;
6937;SDS011;40040;42.706;23.372;2022-07-22T00:20:37;9.02;;;6.45;;
6937;SDS011;40040;42.706;23.372;2022-07-22T00:23:04;10.57;;;6.53;;
6937;SDS011;40040;42.706;23.372;2022-07-22T00:25:30;8.55;;;6.70;;
6937;SDS011;40040;42.706;23.372;2022-07-22T00:27:59;7.88;;;6.70;;
6937;SDS011;40040;42.706;23.372;2022-07-22T00:30:25;8.23;;;6.20;;
6937;SDS011;40040;42.706;23.372;2022-07-22T00:32:52;10.48;;;6.60;;
6937;SDS011;40040;42.706;23.372;2022-07-22T00:35:19;8.10;;;6.82;;
6937;SDS011;40040;42.706;23.372;2022-07-22T00:37:46;9.85;;;6.80;;
6937;SDS011;40040;42.706;23.372;2022-07-22T00:40:13;9.43;;;6.07;;
6937;SDS011;40040;42.706;23.372;2022-07-22T00:42:40;7.70;;;5.55;;
6937;SDS011;40040;42.706;23.372;2022-07-22T00:45:09;7.47;;;5.50;;
6937;SDS011;40040;42.706;23.372;2022-07-22T00:47:37;8.98;;;5.65;;
6937;SDS011;40040;42.706;23.372;2022-07-22T00:50:05;6.78;;;5.65;;
6937;SDS011;40040;42.706;23.372;2022-07-22T00:52:32;7.57;;;5.45;;
6937;SDS011;40040;42.706;23.372;2022-07-22T00:55:00;6.28;;;5.30;;
6937;SDS011;40040;42.706;23.372;2022-07-22T00:57:28;9.15;;;5.57;;
6937;SDS011;40040;42.706;23.372;2022-07-22T00:59:55;6.57;;;5.45;;
6937;SDS011;40040;42.706;23.372;2022-07-22T01:02:24;5.75;;;5.18;;
6937;SDS011;40040;42.706;23.372;2022-07-22T01:04:51;6.30;;;5.70;;
6937;SDS011;40040;42.706;23.372;2022-07-22T01:07:18;7.35;;;5.43;;
6937;SDS011;40040;42.706;23.372;2022-07-22T01:09:45;10.52;;;5.63;;
6937;SDS011;40040;42.706;23.372;2022-07-22T01:12:12;6.03;;;5.43;;
6937;SDS011;40040;42.706;23.372;2022-07-22T01:14:39;7.10;;;6.07;;
6937;SDS011;40040;42.706;23.372;2022-07-22T01:17:06;11.90;;;6.00;;
6937;SDS011;40040;42.706;23.372;2022-07-22T01:19:35;6.45;;;5.70;;
6937;SDS011;40040;42.706;23.372;2022-07-22T01:22:04;7.68;;;5.78;;
6937;SDS011;40040;42.706;23.372;2022-07-22T01:24:31;6.05;;;5.32;;
6937;SDS011;40040;42.706;23.372;2022-07-22T01:26:58;6.60;;;5.40;;
6937;SDS011;40040;42.706;23.372;2022-07-22T01:29:26;9.45;;;5.53;;
6937;SDS011;40040;42.706;23.372;2022-07-22T01:31:53;7.35;;;5.72;;
6937;SDS011;40040;42.706;23.372;2022-07-22T01:34:20;7.72;;;5.05;;
6937;SDS011;40040;42.706;23.372;2022-07-22T01:36:46;9.52;;;5.45;;
6937;SDS011;40040;42.706;23.372;2022-07-22T01:39:15;7.97;;;5.63;;
6937;SDS011;40040;42.706;23.372;2022-07-22T01:41:42;6.00;;;5.40;;
6937;SDS011;40040;42.706;23.372;2022-07-22T01:44:09;5.72;;;5.22;;
6937;SDS011;40040;42.706;23.372;2022-07-22T01:46:36;5.68;;;5.15;;
6937;SDS011;40040;42.706;23.372;2022-07-22T01:49:04;6.95;;;5.25;;
6937;SDS011;40040;42.706;23.372;2022-07-22T01:51:30;6.00;;;5.43;;
6937;SDS011;40040;42.706;23.372;2022-07-22T01:53:57;5.95;;;5.45;;
6937;SDS011;40040;42.706;23.372;2022-07-22T01:56:25;6.38;;;5.72;;
6937;SDS011;40040;42.706;23.372;2022-07-22T01:58:52;6.25;;;5.65;;
6937;SDS011;40040;42.706;23.372;2022-07-22T02:01:19;6.47;;;5.80;;
6937;SDS011;40040;42.706;23.372;2022-07-22T02:03:46;6.65;;;5.70;;
6937;SDS011;40040;42.706;23.372;2022-07-22T02:06:13;6.22;;;5.63;;
6937;SDS011;40040;42.706;23.372;2022-07-22T02:08:40;6.22;;;5.63;;
6937;SDS011;40040;42.706;23.372;2022-07-22T02:11:06;8.63;;;5.65;;
6937;SDS011;40040;42.706;23.372;2022-07-22T02:13:35;6.15;;;5.53;;
6937;SDS011;40040;42.706;23.372;2022-07-22T02:16:01;7.45;;;5.50;;
6937;SDS011;40040;42.706;23.372;2022-07-22T02:18:28;5.80;;;5.22;;
6937;SDS011;40040;42.706;23.372;2022-07-22T02:20:55;6.75;;;5.80;;
6937;SDS011;40040;42.706;23.372;2022-07-22T02:23:22;7.00;;;5.50;;
6937;SDS011;40040;42.706;23.372;2022-07-22T02:25:49;6.88;;;5.53;;
6937;SDS011;40040;42.706;23.372;2022-07-22T02:28:15;6.53;;;5.93;;
6937;SDS011;40040;42.706;23.372;2022-07-22T02:30:44;8.48;;;6.10;;
6937;SDS011;40040;42.706;23.372;2022-07-22T02:33:11;7.22;;;5.47;;
6937;SDS011;40040;42.706;23.372;2022-07-22T02:35:38;10.18;;;6.35;;
6937;SDS011;40040;42.706;23.372;2022-07-22T02:38:04;7.97;;;6.35;;
6937;SDS011;40040;42.706;23.372;2022-07-22T02:40:32;7.40;;;6.38;;
6937;SDS011;40040;42.706;23.372;2022-07-22T02:42:59;8.95;;;6.32;;
6937;SDS011;40040;42.706;23.372;2022-07-22T02:45:26;8.73;;;6.78;;
6937;SDS011;40040;42.706;23.372;2022-07-22T02:47:54;8.18;;;6.45;;
6937;SDS011;40040;42.706;23.372;2022-07-22T02:50:22;6.85;;;6.07;;
6937;SDS011;40040;42.706;23.372;2022-07-22T02:52:50;11.75;;;6.45;;
6937;SDS011;40040;42.706;23.372;2022-07-22T02:55:17;9.23;;;6.70;;
6937;SDS011;40040;42.706;23.372;2022-07-22T02:57:44;10.15;;;6.90;;
6937;SDS011;40040;42.706;23.372;2022-07-22T03:00:11;7.38;;;6.55;;
6937;SDS011;40040;42.706;23.372;2022-07-22T03:02:39;10.05;;;6.32;;
6937;SDS011;40040;42.706;23.372;2022-07-22T03:05:07;8.20;;;6.40;;
6937;SDS011;40040;42.706;23.372;2022-07-22T03:07:35;8.80;;;6.07;;
6937;SDS011;40040;42.706;23.372;2022-07-22T03:10:02;8.60;;;6.28;;
6937;SDS011;40040;42.706;23.372;2022-07-22T03:12:29;8.02;;;6.45;;
6937;SDS011;40040;42.706;23.372;2022-07-22T03:14:56;6.93;;;6.20;;
6937;SDS011;40040;42.706;23.372;2022-07-22T03:17:23;7.90;;;6.55;;
6937;SDS011;40040;42.706;23.372;2022-07-22T03:19:49;7.05;;;6.22;;
6937;SDS011;40040;42.706;23.372;2022-07-22T03:22:17;7.65;;;6.50;;
6937;SDS011;40040;42.706;23.372;2022-07-22T03:24:44;13.15;;;6.93;;
6937;SDS011;40040;42.706;23.372;2022-07-22T03:27:11;14.10;;;5.97;;
6937;SDS011;40040;42.706;23.372;2022-07-22T03:29:38;10.00;;;6.97;;
6937;SDS011;40040;42.706;23.372;2022-07-22T03:32:05;11.23;;;6.45;;
6937;SDS011;40040;42.706;23.372;2022-07-22T03:34:32;9.40;;;6.57;;
6937;SDS011;40040;42.706;23.372;2022-07-22T03:36:58;9.90;;;6.40;;
6937;SDS011;40040;42.706;23.372;2022-07-22T03:39:27;14.70;;;6.40;;
6937;SDS011;40040;42.706;23.372;2022-07-22T03:41:53;12.25;;;6.40;;
6937;SDS011;40040;42.706;23.372;2022-07-22T03:44:20;7.43;;;6.45;;
6937;SDS011;40040;42.706;23.372;2022-07-22T03:46:47;10.40;;;6.65;;
6937;SDS011;40040;42.706;23.372;2022-07-22T03:49:14;9.05;;;6.80;;
6937;SDS011;40040;42.706;23.372;2022-07-22T03:51:41;9.00;;;6.82;;
6937;SDS011;40040;42.706;23.372;2022-07-22T03:54:08;8.05;;;6.63;;
6937;SDS011;40040;42.706;23.372;2022-07-22T03:56:36;15.50;;;7.15;;
6937;SDS011;40040;42.706;23.372;2022-07-22T03:59:03;7.18;;;5.82;;
6937;SDS011;40040;42.706;23.372;2022-07-22T04:01:29;8.98;;;6.32;;
6937;SDS011;40040;42.706;23.372;2022-07-22T04:03:56;7.22;;;6.32;;
6937;SDS011;40040;42.706;23.372;2022-07-22T04:06:23;8.35;;;5.97;;
6937;SDS011;40040;42.706;23.372;2022-07-22T04:08:50;8.50;;;6.63;;
6937;SDS011;40040;42.706;23.372;2022-07-22T04:11:17;8.57;;;7.28;;
6937;SDS011;40040;42.706;23.372;2022-07-22T04:13:45;8.02;;;7.03;;
6937;SDS011;40040;42.706;23.372;2022-07-22T04:16:12;10.32;;;7.47;;
6937;SDS011;40040;42.706;23.372;2022-07-22T04:18:38;9.55;;;7.53;;
6937;SDS011;40040;42.706;23.372;2022-07-22T04:21:05;9.43;;;7.28;;
6937;SDS011;40040;42.706;23.372;2022-07-22T04:23:32;13.38;;;7.47;;
6937;SDS011;40040;42.706;23.372;2022-07-22T04:25:59;10.10;;;6.88;;
6937;SDS011;40040;42.706;23.372;2022-07-22T04:28:26;10.32;;;7.50;;
6937;SDS011;40040;42.706;23.372;2022-07-22T04:30:54;11.23;;;7.20;;
6937;SDS011;40040;42.706;23.372;2022-07-22T04:33:21;11.02;;;7.15;;
6937;SDS011;40040;42.706;23.372;2022-07-22T04:35:47;12.43;;;8.00;;
6937;SDS011;40040;42.706;23.372;2022-07-22T04:38:15;10.80;;;7.60;;
6937;SDS011;40040;42.706;23.372;2022-07-22T04:40:42;13.10;;;8.32;;
6937;SDS011;40040;42.706;23.372;2022-07-22T04:43:10;10.48;;;7.78;;
6937;SDS011;40040;42.706;23.372;2022-07-22T04:45:36;10.40;;;7.93;;
6937;SDS011;40040;42.706;23.372;2022-07-22T04:48:05;11.30;;;7.97;;
6937;SDS011;40040;42.706;23.372;2022-07-22T04:50:31;15.63;;;8.27;;
6937;SDS011;40040;42.706;23.372;2022-07-22T04:52:58;11.68;;;8.63;;
6937;SDS011;40040;42.706;23.372;2022-07-22T04:55:25;12.60;;;8.77;;
6937;SDS011;40040;42.706;23.372;2022-07-22T04:57:52;12.02;;;8.40;;
6937;SDS011;40040;42.706;23.372;2022-07-22T05:00:19;11.77;;;8.40;;
6937;SDS011;40040;42.706;23.372;2022-07-22T05:02:45;11.75;;;8.30;;
6937;SDS011;40040;42.706;23.372;2022-07-22T05:05:14;12.65;;;8.45;;
6937;SDS011;40040;42.706;23.372;2022-07-22T05:07:40;14.13;;;9.05;;
6937;SDS011;40040;42.706;23.372;2022-07-22T05:10:07;13.32;;;8.27;;
6937;SDS011;40040;42.706;23.372;2022-07-22T05:12:35;13.80;;;8.75;;
6937;SDS011;40040;42.706;23.372;2022-07-22T05:15:02;15.80;;;8.27;;
6937;SDS011;40040;42.706;23.372;2022-07-22T05:17:29;10.88;;;8.25;;
6937;SDS011;40040;42.706;23.372;2022-07-22T05:19:56;21.48;;;8.77;;
6937;SDS011;40040;42.706;23.372;2022-07-22T05:22:24;10.25;;;8.73;;
6937;SDS011;40040;42.706;23.372;2022-07-22T05:24:51;12.18;;;8.57;;
6937;SDS011;40040;42.706;23.372;2022-07-22T05:27:18;10.70;;;8.20;;
6937;SDS011;40040;42.706;23.372;2022-07-22T05:29:45;10.65;;;8.73;;
6937;SDS011;40040;42.706;23.372;2022-07-22T05:32:12;15.37;;;9.90;;
6937;SDS011;40040;42.706;23.372;2022-07-22T05:34:39;13.50;;;8.80;;
6937;SDS011;40040;42.706;23.372;2022-07-22T05:37:06;12.90;;;8.75;;
6937;SDS011;40040;42.706;23.372;2022-07-22T05:39:34;15.45;;;8.55;;
6937;SDS011;40040;42.706;23.372;2022-07-22T05:42:01;13.05;;;8.68;;
6937;SDS011;40040;42.706;23.372;2022-07-22T05:44:27;11.05;;;8.43;;
6937;SDS011;40040;42.706;23.372;2022-07-22T05:46:54;11.50;;;8.40;;
6937;SDS011;40040;42.706;23.372;2022-07-22T05:49:21;14.23;;;8.77;;
6937;SDS011;40040;42.706;23.372;2022-07-22T05:51:49;15.52;;;9.20;;
6937;SDS011;40040;42.706;23.372;2022-07-22T05:54:16;16.77;;;8.48;;
6937;SDS011;40040;42.706;23.372;2022-07-22T05:56:45;10.50;;;8.55;;
6937;SDS011;40040;42.706;23.372;2022-07-22T05:59:11;14.32;;;8.75;;
6937;SDS011;40040;42.706;23.372;2022-07-22T06:01:38;12.82;;;9.10;;
6937;SDS011;40040;42.706;23.372;2022-07-22T06:04:05;14.38;;;8.77;;
6937;SDS011;40040;42.706;23.372;2022-07-22T06:06:32;14.13;;;8.02;;
6937;SDS011;40040;42.706;23.372;2022-07-22T06:08:58;12.77;;;8.00;;
6937;SDS011;40040;42.706;23.372;2022-07-22T06:11:26;12.57;;;7.93;;
6937;SDS011;40040;42.706;23.372;2022-07-22T06:13:54;12.25;;;8.25;;
6937;SDS011;40040;42.706;23.372;2022-07-22T06:16:21;10.32;;;7.95;;
6937;SDS011;40040;42.706;23.372;2022-07-22T06:18:47;15.95;;;8.38;;
6937;SDS011;40040;42.706;23.372;2022-07-22T06:21:14;12.35;;;7.60;;
6937;SDS011;40040;42.706;23.372;2022-07-22T06:23:41;12.00;;;7.63;;
6937;SDS011;40040;42.706;23.372;2022-07-22T06:26:08;14.55;;;8.50;;
6937;SDS011;40040;42.706;23.372;2022-07-22T06:28:35;9.43;;;7.88;;
6937;SDS011;40040;42.706;23.372;2022-07-22T06:31:03;14.48;;;7.93;;
6937;SDS011;40040;42.706;23.372;2022-07-22T06:33:30;10.25;;;7.40;;
6937;SDS011;40040;42.706;23.372;2022-07-22T06:35:58;14.38;;;9.02;;
6937;SDS011;40040;42.706;23.372;2022-07-22T06:38:25;11.57;;;8.57;;
6937;SDS011;40040;42.706;23.372;2022-07-22T06:40:52;15.63;;;8.50;;
6937;SDS011;40040;42.706;23.372;2022-07-22T06:43:19;12.18;;;8.23;;
6937;SDS011;40040;42.706;23.372;2022-07-22T06:45:46;10.80;;;8.05;;
6937;SDS011;40040;42.706;23.372;2022-07-22T06:48:15;12.07;;;8.38;;
6937;SDS011;40040;42.706;23.372;2022-07-22T06:50:42;13.85;;;8.07;;
6937;SDS011;40040;42.706;23.372;2022-07-22T06:53:09;11.90;;;8.52;;
6937;SDS011;40040;42.706;23.372;2022-07-22T06:55:36;13.23;;;8.10;;
6937;SDS011;40040;42.706;23.372;2022-07-22T06:58:02;12.48;;;7.88;;
6937;SDS011;40040;42.706;23.372;2022-07-22T07:00:29;13.60;;;7.88;;
6937;SDS011;40040;42.706;23.372;2022-07-22T07:02:57;11.85;;;7.95;;
6937;SDS011;40040;42.706;23.372;2022-07-22T07:05:26;14.00;;;7.57;;
6937;SDS011;40040;42.706;23.372;2022-07-22T07:07:53;10.93;;;7.47;;
6937;SDS011;40040;42.706;23.372;2022-07-22T07:10:21;8.52;;;7.22;;
6937;SDS011;40040;42.706;23.372;2022-07-22T07:12:47;8.32;;;7.32;;
6937;SDS011;40040;42.706;23.372;2022-07-22T07:15:14;8.48;;;6.60;;
6937;SDS011;40040;42.706;23.372;2022-07-22T07:17:41;9.07;;;6.60;;
6937;SDS011;40040;42.706;23.372;2022-07-22T07:20:09;7.55;;;6.60;;
6937;SDS011;40040;42.706;23.372;2022-07-22T07:22:38;7.35;;;6.38;;
6937;SDS011;40040;42.706;23.372;2022-07-22T07:25:06;8.60;;;6.15;;
6937;SDS011;40040;42.706;23.372;2022-07-22T07:27:34;7.40;;;6.30;;
6937;SDS011;40040;42.706;23.372;2022-07-22T07:30:02;7.22;;;6.18;;
6937;SDS011;40040;42.706;23.372;2022-07-22T07:32:29;7.65;;;5.85;;
6937;SDS011;40040;42.706;23.372;2022-07-22T07:34:56;7.20;;;5.80;;
6937;SDS011;40040;42.706;23.372;2022-07-22T07:37:23;7.18;;;5.82;;
6937;SDS011;40040;42.706;23.372;2022-07-22T07:39:51;9.80;;;6.10;;
6937;SDS011;40040;42.706;23.372;2022-07-22T07:42:18;8.88;;;5.80;;
6937;SDS011;40040;42.706;23.372;2022-07-22T07:44:45;7.68;;;6.07;;
6937;SDS011;40040;42.706;23.372;2022-07-22T07:47:12;7.90;;;6.43;;
6937;SDS011;40040;42.706;23.372;2022-07-22T07:49:42;8.27;;;5.85;;
6937;SDS011;40040;42.706;23.372;2022-07-22T07:52:09;7.30;;;5.85;;
6937;SDS011;40040;42.706;23.372;2022-07-22T07:54:37;7.30;;;6.25;;
6937;SDS011;40040;42.706;23.372;2022-07-22T07:57:06;6.43;;;5.82;;
6937;SDS011;40040;42.706;23.372;2022-07-22T07:59:34;6.72;;;6.10;;
6937;SDS011;40040;42.706;23.372;2022-07-22T08:02:01;10.60;;;6.05;;
6937;SDS011;40040;42.706;23.372;2022-07-22T08:04:27;7.40;;;5.90;;
6937;SDS011;40040;42.706;23.372;2022-07-22T08:06:55;5.97;;;5.47;;
6937;SDS011;40040;42.706;23.372;2022-07-22T08:09:22;8.07;;;5.47;;
6937;SDS011;40040;42.706;23.372;2022-07-22T08:11:49;6.20;;;5.07;;
6937;SDS011;40040;42.706;23.372;2022-07-22T08:14:18;5.82;;;5.13;;
6937;SDS011;40040;42.706;23.372;2022-07-22T08:16:45;6.35;;;4.82;;
6937;SDS011;40040;42.706;23.372;2022-07-22T08:19:12;5.93;;;4.88;;
6937;SDS011;40040;42.706;23.372;2022-07-22T08:21:39;8.77;;;5.18;;
6937;SDS011;40040;42.706;23.372;2022-07-22T08:24:08;5.30;;;4.65;;
6937;SDS011;40040;42.706;23.372;2022-07-22T08:26:35;5.63;;;5.03;;
6937;SDS011;40040;42.706;23.372;2022-07-22T08:29:02;5.03;;;4.53;;
6937;SDS011;40040;42.706;23.372;2022-07-22T08:31:32;5.93;;;4.57;;
6937;SDS011;40040;42.706;23.372;2022-07-22T08:34:00;4.63;;;4.20;;
6937;SDS011;40040;42.706;23.372;2022-07-22T08:36:27;5.65;;;4.38;;
6937;SDS011;40040;42.706;23.372;2022-07-22T08:38:54;5.10;;;4.70;;
6937;SDS011;40040;42.706;23.372;2022-07-22T08:41:21;5.78;;;4.97;;
6937;SDS011;40040;42.706;23.372;2022-07-22T08:43:49;5.75;;;4.78;;
6937;SDS011;40040;42.706;23.372;2022-07-22T08:46:16;5.00;;;4.45;;
6937;SDS011;40040;42.706;23.372;2022-07-22T08:48:45;5.20;;;4.70;;
6937;SDS011;40040;42.706;23.372;2022-07-22T08:51:12;5.20;;;4.80;;
6937;SDS011;40040;42.706;23.372;2022-07-22T08:53:39;5.35;;;4.50;;
6937;SDS011;40040;42.706;23.372;2022-07-22T08:56:06;4.63;;;4.20;;
6937;SDS011;40040;42.706;23.372;2022-07-22T08:58:33;5.40;;;4.85;;
6937;SDS011;40040;42.706;23.372;2022-07-22T09:01:03;4.70;;;4.30;;
6937;SDS011;40040;42.706;23.372;2022-07-22T09:03:32;4.60;;;4.25;;
6937;SDS011;40040;42.706;23.372;2022-07-22T09:06:00;4.97;;;4.57;;
6937;SDS011;40040;42.706;23.372;2022-07-22T09:08:27;4.97;;;4.47;;
6937;SDS011;40040;42.706;23.372;2022-07-22T09:10:54;5.72;;;4.97;;
6937;SDS011;40040;42.706;23.372;2022-07-22T09:13:22;5.00;;;4.50;;
6937;SDS011;40040;42.706;23.372;2022-07-22T09:15:50;4.93;;;4.32;;
6937;SDS011;40040;42.706;23.372;2022-07-22T09:18:18;6.40;;;4.57;;
6937;SDS011;40040;42.706;23.372;2022-07-22T09:20:45;4.78;;;4.35;;
6937;SDS011;40040;42.706;23.372;2022-07-22T09:23:15;4.75;;;4.10;;
6937;SDS011;40040;42.706;23.372;2022-07-22T09:25:44;5.80;;;4.45;;
6937;SDS011;40040;42.706;23.372;2022-07-22T09:28:12;6.25;;;4.63;;
6937;SDS011;40040;42.706;23.372;2022-07-22T09:30:45;5.90;;;4.30;;
6937;SDS011;40040;42.706;23.372;2022-07-22T09:33:15;5.10;;;4.60;;
6937;SDS011;40040;42.706;23.372;2022-07-22T09:35:42;7.78;;;4.45;;
6937;SDS011;40040;42.706;23.372;2022-07-22T09:38:10;6.78;;;4.60;;
6937;SDS011;40040;42.706;23.372;2022-07-22T09:40:40;5.35;;;4.85;;
6937;SDS011;40040;42.706;23.372;2022-07-22T09:43:09;5.47;;;4.60;;
6937;SDS011;40040;42.706;23.372;2022-07-22T09:45:44;5.43;;;4.93;;
6937;SDS011;40040;42.706;23.372;2022-07-22T09:48:13;5.25;;;4.78;;
6937;SDS011;40040;42.706;23.372;2022-07-22T09:50:40;5.25;;;4.82;;
6937;SDS011;40040;42.706;23.372;2022-07-22T09:53:07;6.68;;;4.57;;
6937;SDS011;40040;42.706;23.372;2022-07-22T09:55:34;6.55;;;4.65;;
6937;SDS011;40040;42.706;23.372;2022-07-22T09:58:06;4.85;;;4.45;;
6937;SDS011;40040;42.706;23.372;2022-07-22T10:00:34;4.85;;;4.47;;
6937;SDS011;40040;42.706;23.372;2022-07-22T10:03:02;5.68;;;4.40;;
6937;SDS011;40040;42.706;23.372;2022-07-22T10:05:31;5.30;;;4.68;;
6937;SDS011;40040;42.706;23.372;2022-07-22T10:08:00;4.97;;;4.55;;
6937;SDS011;40040;42.706;23.372;2022-07-22T10:10:28;5.20;;;4.45;;
6937;SDS011;40040;42.706;23.372;2022-07-22T10:12:56;5.43;;;4.90;;
6937;SDS011;40040;42.706;23.372;2022-07-22T10:15:26;7.22;;;4.60;;
6937;SDS011;40040;42.706;23.372;2022-07-22T10:17:55;4.30;;;4.00;;
6937;SDS011;40040;42.706;23.372;2022-07-22T10:20:23;4.15;;;3.78;;
6937;SDS011;40040;42.706;23.372;2022-07-22T10:22:57;4.80;;;4.40;;
6937;SDS011;40040;42.706;23.372;2022-07-22T10:25:25;5.00;;;4.65;;
6937;SDS011;40040;42.706;23.372;2022-07-22T10:27:54;4.50;;;4.10;;
6937;SDS011;40040;42.706;23.372;2022-07-22T10:30:23;5.72;;;4.35;;
6937;SDS011;40040;42.706;23.372;2022-07-22T10:35:51;4.47;;;4.07;;
6937;SDS011;40040;42.706;23.372;2022-07-22T10:38:20;4.45;;;4.15;;
6937;SDS011;40040;42.706;23.372;2022-07-22T10:40:49;4.88;;;4.47;;
6937;SDS011;40040;42.706;23.372;2022-07-22T10:43:21;4.80;;;4.40;;
6937;SDS011;40040;42.706;23.372;2022-07-22T10:45:51;4.55;;;4.15;;
6937;SDS011;40040;42.706;23.372;2022-07-22T10:48:20;4.22;;;3.92;;
6937;SDS011;40040;42.706;23.372;2022-07-22T10:51:05;4.25;;;3.92;;
6937;SDS011;40040;42.706;23.372;2022-07-22T10:53:44;4.18;;;3.88;;
6937;SDS011;40040;42.706;23.372;2022-07-22T10:56:14;4.50;;;4.10;;
6937;SDS011;40040;42.706;23.372;2022-07-22T10:58:43;4.55;;;4.15;;
6937;SDS011;40040;42.706;23.372;2022-07-22T11:01:19;4.60;;;4.30;;
6937;SDS011;40040;42.706;23.372;2022-07-22T11:03:48;4.32;;;4.03;;
6937;SDS011;40040;42.706;23.372;2022-07-22T11:06:16;4.22;;;3.92;;
6937;SDS011;40040;42.706;23.372;2022-07-22T11:08:47;4.05;;;3.75;;
6937;SDS011;40040;42.706;23.372;2022-07-22T11:11:15;4.82;;;4.35;;
6937;SDS011;40040;42.706;23.372;2022-07-22T11:13:42;5.35;;;3.90;;
6937;SDS011;40040;42.706;23.372;2022-07-22T11:16:19;4.72;;;4.32;;
6937;SDS011;40040;42.706;23.372;2022-07-22T11:18:48;4.65;;;4.07;;
6937;SDS011;40040;42.706;23.372;2022-07-22T11:21:18;4.53;;;4.13;;
6937;SDS011;40040;42.706;23.372;2022-07-22T11:23:48;4.93;;;4.20;;
6937;SDS011;40040;42.706;23.372;2022-07-22T11:26:17;4.57;;;4.28;;
6937;SDS011;40040;42.706;23.372;2022-07-22T11:28:46;4.75;;;4.28;;
6937;SDS011;40040;42.706;23.372;2022-07-22T11:31:16;6.03;;;4.15;;
6937;SDS011;40040;42.706;23.372;2022-07-22T11:33:45;4.90;;;4.50;;
6937;SDS011;40040;42.706;23.372;2022-07-22T11:36:12;4.57;;;4.25;;
6937;SDS011;40040;42.706;23.372;2022-07-22T11:38:43;4.90;;;4.50;;
6937;SDS011;40040;42.706;23.372;2022-07-22T11:41:11;5.03;;;4.60;;
6937;SDS011;40040;42.706;23.372;2022-07-22T11:43:40;4.97;;;4.55;;
6937;SDS011;40040;42.706;23.372;2022-07-22T11:46:07;4.88;;;4.47;;
6937;SDS011;40040;42.706;23.372;2022-07-22T11:48:36;4.88;;;4.53;;
6937;SDS011;40040;42.706;23.372;2022-07-22T11:51:04;5.10;;;4.70;;
6937;SDS011;40040;42.706;23.372;2022-07-22T11:53:33;4.65;;;4.35;;
6937;SDS011;40040;42.706;23.372;2022-07-22T11:56:00;5.07;;;4.57;;
6937;SDS011;40040;42.706;23.372;2022-07-22T11:58:39;5.53;;;4.50;;
6937;SDS011;40040;42.706;23.372;2022-07-22T12:01:08;5.90;;;4.90;;
6937;SDS011;40040;42.706;23.372;2022-07-22T12:03:38;5.50;;;5.00;;
6937;SDS011;40040;42.706;23.372;2022-07-22T12:06:07;6.55;;;4.63;;
6937;SDS011;40040;42.706;23.372;2022-07-22T12:08:38;5.18;;;4.70;;
6937;SDS011;40040;42.706;23.372;2022-07-22T12:11:07;5.40;;;5.00;;
6937;SDS011;40040;42.706;23.372;2022-07-22T12:13:35;5.57;;;4.90;;
6937;SDS011;40040;42.706;23.372;2022-07-22T12:16:15;5.18;;;4.68;;
6937;SDS011;40040;42.706;23.372;2022-07-22T12:18:49;5.10;;;4.70;;
6937;SDS011;40040;42.706;23.372;2022-07-22T12:21:17;7.30;;;4.82;;
6937;SDS011;40040;42.706;23.372;2022-07-22T12:23:49;5.70;;;4.88;;
6937;SDS011;40040;42.706;23.372;2022-07-22T12:26:17;4.20;;;3.90;;
6937;SDS011;40040;42.706;23.372;2022-07-22T12:28:45;4.80;;;4.40;;
6937;SDS011;40040;42.706;23.372;2022-07-22T12:31:11;4.80;;;4.40;;
6937;SDS011;40040;42.706;23.372;2022-07-22T12:33:47;4.50;;;4.20;;
6937;SDS011;40040;42.706;23.372;2022-07-22T12:36:14;6.03;;;4.30;;
6937;SDS011;40040;42.706;23.372;2022-07-22T12:38:42;5.00;;;4.22;;
6937;SDS011;40040;42.706;23.372;2022-07-22T12:41:22;5.80;;;5.30;;
6937;SDS011;40040;42.706;23.372;2022-07-22T12:43:50;4.88;;;4.40;;
6937;SDS011;40040;42.706;23.372;2022-07-22T12:46:17;4.32;;;4.05;;
6937;SDS011;40040;42.706;23.372;2022-07-22T12:48:50;4.60;;;4.20;;
6937;SDS011;40040;42.706;23.372;2022-07-22T12:51:18;5.43;;;4.25;;
6937;SDS011;40040;42.706;23.372;2022-07-22T12:53:45;4.05;;;3.85;;
6937;SDS011;40040;42.706;23.372;2022-07-22T12:56:12;4.70;;;3.72;;
6937;SDS011;40040;42.706;23.372;2022-07-22T12:58:39;4.20;;;3.78;;
6937;SDS011;40040;42.706;23.372;2022-07-22T13:01:07;4.22;;;3.83;;
6937;SDS011;40040;42.706;23.372;2022-07-22T13:03:35;4.78;;;4.38;;
6937;SDS011;40040;42.706;23.372;2022-07-22T13:06:04;5.15;;;4.18;;
6937;SDS011;40040;42.706;23.372;2022-07-22T13:08:32;4.43;;;4.03;;
6937;SDS011;40040;42.706;23.372;2022-07-22T13:10:59;4.88;;;3.60;;
6937;SDS011;40040;42.706;23.372;2022-07-22T13:13:26;4.68;;;4.20;;
6937;SDS011;40040;42.706;23.372;2022-07-22T13:15:53;5.03;;;4.47;;
6937;SDS011;40040;42.706;23.372;2022-07-22T13:18:20;4.25;;;3.80;;
6937;SDS011;40040;42.706;23.372;2022-07-22T13:20:47;4.53;;;4.00;;
6937;SDS011;40040;42.706;23.372;2022-07-22T13:23:16;4.38;;;3.95;;
6937;SDS011;40040;42.706;23.372;2022-07-22T13:25:43;4.00;;;3.70;;
6937;SDS011;40040;42.706;23.372;2022-07-22T13:28:10;7.57;;;3.75;;
6937;SDS011;40040;42.706;23.372;2022-07-22T13:30:37;4.63;;;4.00;;
6937;SDS011;40040;42.706;23.372;2022-07-22T13:33:04;5.95;;;3.67;;
6937;SDS011;40040;42.706;23.372;2022-07-22T13:35:31;4.15;;;3.80;;
6937;SDS011;40040;42.706;23.372;2022-07-22T13:37:58;4.68;;;4.03;;
6937;SDS011;40040;42.706;23.372;2022-07-22T13:40:26;6.00;;;4.50;;
6937;SDS011;40040;42.706;23.372;2022-07-22T13:42:53;5.53;;;4.18;;
6937;SDS011;40040;42.706;23.372;2022-07-22T13:45:20;4.20;;;3.90;;
6937;SDS011;40040;42.706;23.372;2022-07-22T13:47:47;3.85;;;3.55;;
6937;SDS011;40040;42.706;23.372;2022-07-22T13:50:14;5.80;;;4.00;;
6937;SDS011;40040;42.706;23.372;2022-07-22T13:52:41;4.45;;;4.05;;
6937;SDS011;40040;42.706;23.372;2022-07-22T13:55:11;5.80;;;3.63;;
6937;SDS011;40040;42.706;23.372;2022-07-22T13:57:40;4.72;;;3.80;;
6937;SDS011;40040;42.706;23.372;2022-07-22T14:00:07;4.05;;;3.78;;
6937;SDS011;40040;42.706;23.372;2022-07-22T14:02:36;4.28;;;3.97;;
6937;SDS011;40040;42.706;23.372;2022-07-22T14:05:04;4.28;;;3.75;;
6937;SDS011;40040;42.706;23.372;2022-07-22T14:07:31;4.18;;;3.80;;
6937;SDS011;40040;42.706;23.372;2022-07-22T14:09:58;4.10;;;3.70;;
6937;SDS011;40040;42.706;23.372;2022-07-22T14:12:25;4.32;;;4.03;;
6937;SDS011;40040;42.706;23.372;2022-07-22T14:14:53;4.53;;;4.20;;
6937;SDS011;40040;42.706;23.372;2022-07-22T14:17:20;4.28;;;3.83;;
6937;SDS011;40040;42.706;23.372;2022-07-22T14:19:47;4.30;;;4.00;;
6937;SDS011;40040;42.706;23.372;2022-07-22T14:22:14;4.38;;;3.90;;
6937;SDS011;40040;42.706;23.372;2022-07-22T14:24:41;6.88;;;4.13;;
6937;SDS011;40040;42.706;23.372;2022-07-22T14:27:08;4.63;;;4.20;;
6937;SDS011;40040;42.706;23.372;2022-07-22T14:29:34;4.40;;;3.85;;
6937;SDS011;40040;42.706;23.372;2022-07-22T14:32:03;4.35;;;3.97;;
6937;SDS011;40040;42.706;23.372;2022-07-22T14:34:30;4.18;;;3.88;;
6937;SDS011;40040;42.706;23.372;2022-07-22T14:36:57;4.07;;;3.78;;
6937;SDS011;40040;42.706;23.372;2022-07-22T14:39:24;5.00;;;4.40;;
6937;SDS011;40040;42.706;23.372;2022-07-22T14:41:51;5.05;;;3.78;;
6937;SDS011;40040;42.706;23.372;2022-07-22T14:44:18;4.65;;;4.15;;
6937;SDS011;40040;42.706;23.372;2022-07-22T14:46:45;5.07;;;3.97;;
6937;SDS011;40040;42.706;23.372;2022-07-22T14:49:13;4.43;;;4.03;;
6937;SDS011;40040;42.706;23.372;2022-07-22T14:51:40;4.10;;;3.80;;